Time;durP1;ratioP1;P1;durP2;ratioP2;P2;SDS_P1;SDS_P2;PMS_P1;PMS_P2;Temp;Humidity;BMP_temperature;BMP_pressure;BME280_temperature;BME280_humidity;BME280_pressure;Samples;Min_cycle;Max_cycle;Signal;HPM_P1;HPM_P2
2021/11/12 00:02:12;;;;;;;30.75;17.55;;;;;;;;;;4978579;28;20058;-73
2021/11/12 00:12:16;;;;;;;33.10;16.63;;;;;;;;;;4979052;28;20038;-72
2021/11/12 00:14:44;;;;;;;42.75;18.98;;;;;;;;;;4971259;28;20034;-73
2021/11/12 00:17:11;;;;;;;35.78;18.70;;;;;;;;;;4961768;28;20084;-73
2021/11/12 00:19:37;;;;;;;36.65;20.70;;;;;;;;;;4991212;28;20019;-73
2021/11/12 00:22:04;;;;;;;36.05;18.65;;;;;;;;;;4978946;28;20074;-72
2021/11/12 00:24:30;;;;;;;39.40;18.85;;;;;;;;;;4984957;28;20027;-72
2021/11/12 00:26:56;;;;;;;37.25;20.23;;;;;;;;;;4989462;28;20038;-73
2021/11/12 00:29:22;;;;;;;36.55;19.42;;;;;;;;;;4973528;28;20440;-73
2021/11/12 00:37:23;;;;;;;36.55;18.77;;;;;;;;;;4981655;28;20035;-73
2021/11/12 00:39:58;;;;;;;48.45;22.52;;;;;;;;;;4978818;28;20023;-73
2021/11/12 00:42:36;;;;;;;43.72;21.73;;;;;;;;;;4994618;28;21219;-73
2021/11/12 00:45:04;;;;;;;38.40;19.42;;;;;;;;;;4987381;28;20027;-72
2021/11/12 00:53:40;;;;;;;41.63;20.15;;;;;;;;;;4982865;28;20031;-74
2021/11/12 00:55:29;;;;;;;38.75;18.17;;;;;;;;;;4975127;28;20023;-73
2021/11/12 00:57:56;;;;;;;36.78;19.00;;;;;;;;;;4981193;28;20090;-73
2021/11/12 01:00:23;;;;;;;42.40;22.63;;;;;;;;;;4957142;28;20555;-72
2021/11/12 01:02:49;;;;;;;41.97;20.92;;;;;;;;;;4990181;28;20018;-73
2021/11/12 01:05:16;;;;;;;42.88;20.00;;;;;;;;;;4982560;28;20101;-73
2021/11/12 01:07:42;;;;;;;38.55;19.13;;;;;;;;;;4976210;28;20031;-73
2021/11/12 01:10:10;;;;;;;45.20;20.52;;;;;;;;;;4964635;28;20053;-73
2021/11/12 01:12:36;;;;;;;41.17;20.40;;;;;;;;;;4984914;28;20032;-73
2021/11/12 01:15:04;;;;;;;42.63;20.55;;;;;;;;;;4979718;28;20019;-73
2021/11/12 01:17:30;;;;;;;35.97;18.58;;;;;;;;;;4983523;28;20027;-73
2021/11/12 01:19:56;;;;;;;40.08;19.52;;;;;;;;;;4991861;28;20109;-73
2021/11/12 01:22:22;;;;;;;38.20;19.23;;;;;;;;;;4989118;28;20023;-73
2021/11/12 01:24:49;;;;;;;41.38;19.20;;;;;;;;;;4984444;28;20071;-72
2021/11/12 01:27:15;;;;;;;39.97;18.20;;;;;;;;;;4995846;28;20088;-72
2021/11/12 01:29:41;;;;;;;39.22;18.67;;;;;;;;;;4985779;28;20081;-72
2021/11/12 01:32:24;;;;;;;38.85;18.13;;;;;;;;;;4984450;28;20320;-73
2021/11/12 01:34:51;;;;;;;36.15;16.15;;;;;;;;;;4977314;28;20081;-73
2021/11/12 01:37:20;;;;;;;35.05;16.02;;;;;;;;;;4996943;28;20023;-73
2021/11/12 01:39:51;;;;;;;33.28;16.65;;;;;;;;;;4982500;28;20527;-73
2021/11/12 01:42:18;;;;;;;37.78;16.05;;;;;;;;;;4988057;28;20015;-73
2021/11/12 01:44:51;;;;;;;34.25;17.13;;;;;;;;;;4964130;28;20027;-73
2021/11/12 01:49:51;;;;;;;37.67;18.67;;;;;;;;;;4980674;28;20030;-73
2021/11/12 01:59:49;;;;;;;33.92;16.77;;;;;;;;;;5006589;23;20069;-69
2021/11/12 02:02:16;;;;;;;34.92;16.33;;;;;;;;;;4990621;28;20254;-69
2021/11/12 02:04:42;;;;;;;38.58;16.80;;;;;;;;;;4961566;28;20042;-69
2021/11/12 02:07:09;;;;;;;38.38;17.70;;;;;;;;;;4974649;28;20479;-69
2021/11/12 02:09:36;;;;;;;32.33;16.38;;;;;;;;;;4977278;28;20019;-69
2021/11/12 02:12:32;;;;;;;33.08;16.35;;;;;;;;;;4988810;28;20160;-69
2021/11/12 02:14:55;;;;;;;38.85;17.45;;;;;;;;;;4986597;28;20093;-69
2021/11/12 02:17:27;;;;;;;40.80;18.45;;;;;;;;;;4961911;28;20460;-69
2021/11/12 02:20:11;;;;;;;39.78;17.38;;;;;;;;;;4991943;28;20035;-71
2021/11/12 02:22:38;;;;;;;43.13;17.00;;;;;;;;;;4972000;28;20484;-70
2021/11/12 02:25:14;;;;;;;42.97;20.42;;;;;;;;;;4955955;28;20034;-68
2021/11/12 02:27:49;;;;;;;40.22;18.83;;;;;;;;;;4977320;28;20034;-69
2021/11/12 02:30:27;;;;;;;41.85;20.00;;;;;;;;;;4973101;28;20030;-70
2021/11/12 02:33:07;;;;;;;40.42;18.23;;;;;;;;;;4972067;28;20180;-70
2021/11/12 02:35:35;;;;;;;37.33;17.17;;;;;;;;;;4967025;28;20069;-70
2021/11/12 02:38:04;;;;;;;44.33;18.45;;;;;;;;;;4978281;28;20033;-70
2021/11/12 02:40:31;;;;;;;36.58;19.10;;;;;;;;;;4983713;28;20105;-70
2021/11/12 02:42:57;;;;;;;43.95;18.88;;;;;;;;;;4960090;28;20484;-70
2021/11/12 02:45:23;;;;;;;39.15;17.98;;;;;;;;;;4977184;28;20025;-69
2021/11/12 02:47:49;;;;;;;39.70;17.92;;;;;;;;;;4986208;28;20089;-69
2021/11/12 02:50:17;;;;;;;34.20;15.80;;;;;;;;;;4986557;28;20042;-69
2021/11/12 02:52:44;;;;;;;31.63;15.15;;;;;;;;;;4986336;28;20035;-68
2021/11/12 02:55:10;;;;;;;40.25;17.05;;;;;;;;;;4978935;28;20014;-69
2021/11/12 02:57:36;;;;;;;37.10;17.63;;;;;;;;;;4972421;28;20387;-70
2021/11/12 03:00:07;;;;;;;36.72;18.92;;;;;;;;;;4990321;28;20026;-72
2021/11/12 03:02:34;;;;;;;35.58;16.33;;;;;;;;;;4967577;28;20031;-69
2021/11/12 03:05:00;;;;;;;37.65;16.25;;;;;;;;;;4967493;28;20026;-71
2021/11/12 03:07:27;;;;;;;37.90;19.08;;;;;;;;;;4985381;28;20093;-70
2021/11/12 03:09:54;;;;;;;41.40;19.17;;;;;;;;;;4979910;28;20031;-70
2021/11/12 03:12:21;;;;;;;42.17;18.38;;;;;;;;;;4984505;28;20121;-69
2021/11/12 03:14:47;;;;;;;38.03;17.70;;;;;;;;;;4964306;28;20026;-69
2021/11/12 03:17:14;;;;;;;42.50;19.50;;;;;;;;;;4971045;28;20447;-69
2021/11/12 03:19:40;;;;;;;42.97;19.10;;;;;;;;;;4990470;28;20593;-70
2021/11/12 03:22:10;;;;;;;37.42;17.55;;;;;;;;;;4991048;28;20025;-71
2021/11/12 03:24:39;;;;;;;37.63;17.33;;;;;;;;;;4985313;28;20044;-70
2021/11/12 03:27:16;;;;;;;39.28;18.15;;;;;;;;;;4961800;28;20026;-70
2021/11/12 03:30:29;;;;;;;41.60;18.75;;;;;;;;;;4960563;28;20030;-69
2021/11/12 04:21:49;;;;;;;39.35;20.00;;;;;;;;;;4986082;28;20030;-69
2021/11/12 05:13:53;;;;;;;49.83;27.17;;;;;;;;;;4979975;28;20042;-69
2021/11/12 05:43:38;;;;;;;62.55;33.60;;;;;;;;;;4993117;28;20046;-70
2021/11/12 05:56:36;;;;;;;68.30;33.60;;;;;;;;;;4999766;28;20603;-69
2021/11/12 05:59:03;;;;;;;78.95;38.65;;;;;;;;;;4979263;28;20042;-71
2021/11/12 06:01:29;;;;;;;78.90;40.08;;;;;;;;;;5003717;28;20040;-72
2021/11/12 06:03:55;;;;;;;78.80;39.10;;;;;;;;;;5004705;28;20091;-68
2021/11/12 06:06:21;;;;;;;75.38;39.15;;;;;;;;;;4990027;28;20037;-69
2021/11/12 06:08:47;;;;;;;80.32;41.75;;;;;;;;;;4992478;28;20022;-69
2021/11/12 06:11:13;;;;;;;84.65;40.78;;;;;;;;;;5008582;28;20034;-70
2021/11/12 06:13:39;;;;;;;85.85;42.95;;;;;;;;;;4998384;28;20030;-69
2021/11/12 06:16:05;;;;;;;84.47;38.72;;;;;;;;;;5008739;28;20449;-70
2021/11/12 06:18:31;;;;;;;81.63;42.13;;;;;;;;;;4995208;28;20030;-69
2021/11/12 06:20:57;;;;;;;90.93;41.80;;;;;;;;;;5007262;28;20049;-68
2021/11/12 06:23:23;;;;;;;96.22;41.95;;;;;;;;;;5007223;28;20061;-69
2021/11/12 06:25:49;;;;;;;90.03;42.80;;;;;;;;;;5006556;28;20026;-69
2021/11/12 06:28:15;;;;;;;89.90;41.50;;;;;;;;;;5007125;28;20060;-67
2021/11/12 06:30:41;;;;;;;95.20;40.50;;;;;;;;;;5004832;28;20141;-68
2021/11/12 06:33:07;;;;;;;90.28;41.78;;;;;;;;;;5008738;28;20018;-68
2021/11/12 06:35:33;;;;;;;89.88;39.80;;;;;;;;;;5005788;28;20030;-68
2021/11/12 06:37:59;;;;;;;86.45;39.13;;;;;;;;;;5005370;28;20018;-68
2021/11/12 06:40:25;;;;;;;81.07;37.33;;;;;;;;;;4989398;28;20026;-69
2021/11/12 06:50:37;;;;;;;74.95;34.25;;;;;;;;;;4988280;28;20041;-70
2021/11/12 06:53:04;;;;;;;71.40;34.85;;;;;;;;;;4987738;28;20034;-69
2021/11/12 06:55:29;;;;;;;80.18;35.33;;;;;;;;;;4987921;28;20054;-69
2021/11/12 06:57:55;;;;;;;73.10;35.13;;;;;;;;;;4988769;28;20072;-69
2021/11/12 07:00:22;;;;;;;74.60;34.95;;;;;;;;;;4987598;28;20038;-68
2021/11/12 07:02:48;;;;;;;76.53;33.75;;;;;;;;;;4988284;28;20034;-69
2021/11/12 07:05:15;;;;;;;76.55;37.00;;;;;;;;;;4987481;28;20038;-70
2021/11/12 07:07:41;;;;;;;70.28;34.05;;;;;;;;;;4986267;28;20496;-69
2021/11/12 07:10:08;;;;;;;76.43;34.60;;;;;;;;;;4984913;28;20030;-70
2021/11/12 07:12:34;;;;;;;77.07;34.22;;;;;;;;;;4965976;28;20135;-69
2021/11/12 07:15:00;;;;;;;73.63;34.40;;;;;;;;;;4985419;28;20027;-69
2021/11/12 07:17:26;;;;;;;67.70;32.10;;;;;;;;;;4988481;28;20030;-68
2021/11/12 07:19:52;;;;;;;74.93;34.47;;;;;;;;;;4967630;28;20037;-71
2021/11/12 07:22:18;;;;;;;79.80;33.92;;;;;;;;;;4984408;28;20031;-70
2021/11/12 07:24:44;;;;;;;78.80;33.17;;;;;;;;;;4984506;28;20503;-69
2021/11/12 07:27:10;;;;;;;73.10;31.55;;;;;;;;;;4986022;28;20097;-68
2021/11/12 07:29:38;;;;;;;70.70;31.13;;;;;;;;;;4985029;28;20040;-70
2021/11/12 07:32:06;;;;;;;72.20;34.50;;;;;;;;;;4986333;28;20030;-70
2021/11/12 07:34:32;;;;;;;73.72;35.05;;;;;;;;;;4958322;28;20089;-69
2021/11/12 07:37:02;;;;;;;68.07;33.60;;;;;;;;;;4992771;28;20088;-71
2021/11/12 07:47:22;;;;;;;79.13;34.53;;;;;;;;;;4991293;28;20042;-69
2021/11/12 07:49:54;;;;;;;66.72;32.33;;;;;;;;;;4991489;28;20100;-69
2021/11/12 07:52:22;;;;;;;63.83;30.85;;;;;;;;;;4991097;28;20077;-69
2021/11/12 07:54:49;;;;;;;67.45;32.45;;;;;;;;;;4990720;28;20102;-70
2021/11/12 07:57:15;;;;;;;66.38;33.10;;;;;;;;;;4991623;28;20439;-70
2021/11/12 07:59:41;;;;;;;66.15;32.15;;;;;;;;;;4991694;28;20023;-69
2021/11/12 08:02:07;;;;;;;65.65;30.55;;;;;;;;;;5039340;23;20411;-73
2021/11/12 08:04:35;;;;;;;69.70;31.50;;;;;;;;;;5031184;28;20051;-73
2021/11/12 08:07:01;;;;;;;65.57;32.20;;;;;;;;;;5032578;28;20024;-72
2021/11/12 08:09:39;;;;;;;59.20;30.38;;;;;;;;;;5031292;28;20021;-73
2021/11/12 08:12:10;;;;;;;69.40;34.85;;;;;;;;;;5032809;28;20386;-73
2021/11/12 08:14:54;;;;;;;68.25;31.85;;;;;;;;;;5028403;28;20034;-73
2021/11/12 08:22:42;;;;;;;74.20;33.35;;;;;;;;;;5027765;28;20040;-73
2021/11/12 08:25:18;;;;;;;72.63;33.13;;;;;;;;;;5026057;28;20502;-73
2021/11/12 08:30:49;;;;;;;79.18;33.72;;;;;;;;;;5000492;28;20112;-73
2021/11/12 08:41:13;;;;;;;82.47;35.85;;;;;;;;;;5024007;28;20177;-73
2021/11/12 08:44:04;;;;;;;81.68;36.22;;;;;;;;;;5020806;28;20106;-73
2021/11/12 08:46:35;;;;;;;96.75;39.60;;;;;;;;;;5029585;28;20037;-73
2021/11/12 08:49:05;;;;;;;104.30;39.85;;;;;;;;;;5030114;28;20386;-73
2021/11/12 08:51:37;;;;;;;;;;;;;;;;;;5019679;28;20034;-74
2021/11/12 08:54:03;;;;;;;105.65;42.38;;;;;;;;;;5022971;28;19912;-72
2021/11/12 08:56:29;;;;;;;98.40;40.97;;;;;;;;;;5028199;28;20409;-74
2021/11/12 08:58:56;;;;;;;100.68;41.65;;;;;;;;;;5027002;28;20035;-73
2021/11/12 09:01:22;;;;;;;103.43;42.47;;;;;;;;;;5028162;28;20033;-73
2021/11/12 09:03:48;;;;;;;115.82;44.53;;;;;;;;;;5029701;28;20489;-73
2021/11/12 09:06:15;;;;;;;104.55;42.17;;;;;;;;;;5030171;28;20029;-74
2021/11/12 09:08:41;;;;;;;108.47;42.25;;;;;;;;;;5030998;28;20059;-73
2021/11/12 09:11:08;;;;;;;94.22;37.90;;;;;;;;;;5022741;28;20037;-73
2021/11/12 09:13:41;;;;;;;97.97;39.20;;;;;;;;;;5027759;28;20036;-74
2021/11/12 09:16:15;;;;;;;99.40;40.20;;;;;;;;;;5029667;28;20025;-75
2021/11/12 09:18:46;;;;;;;101.50;38.83;;;;;;;;;;5030890;28;20032;-75
2021/11/12 09:21:12;;;;;;;93.55;38.65;;;;;;;;;;5027433;28;20104;-75
2021/11/12 09:23:38;;;;;;;98.97;39.72;;;;;;;;;;5028652;28;20116;-75
2021/11/12 09:26:05;;;;;;;100.90;40.42;;;;;;;;;;5030851;28;20489;-75
2021/11/12 09:28:33;;;;;;;96.15;37.55;;;;;;;;;;5030844;28;20064;-76
2021/11/12 09:30:59;;;;;;;97.82;39.72;;;;;;;;;;5029387;28;20033;-75
2021/11/12 09:33:25;;;;;;;105.95;38.83;;;;;;;;;;5028443;28;20033;-75
2021/11/12 09:35:51;;;;;;;92.88;38.95;;;;;;;;;;5026540;28;20413;-75
2021/11/12 09:38:17;;;;;;;89.13;35.60;;;;;;;;;;5016677;28;20029;-75
2021/11/12 09:40:43;;;;;;;98.60;37.75;;;;;;;;;;5025847;28;20120;-75
2021/11/12 09:43:09;;;;;;;84.15;36.15;;;;;;;;;;5023990;28;20136;-74
2021/11/12 09:45:35;;;;;;;87.93;36.35;;;;;;;;;;5028147;28;20030;-75
2021/11/12 09:48:01;;;;;;;84.05;36.15;;;;;;;;;;5029681;28;20585;-75
2021/11/12 09:50:29;;;;;;;75.00;32.63;;;;;;;;;;5031141;28;20021;-75
2021/11/12 09:52:56;;;;;;;70.03;30.27;;;;;;;;;;5030913;28;20079;-73
2021/11/12 09:55:23;;;;;;;70.10;32.15;;;;;;;;;;5028378;28;20071;-73
2021/11/12 09:57:49;;;;;;;65.97;30.73;;;;;;;;;;5014803;28;20033;-73
2021/11/12 10:00:17;;;;;;;71.53;30.83;;;;;;;;;;5024218;28;20025;-74
2021/11/12 10:02:45;;;;;;;74.20;33.42;;;;;;;;;;5022372;28;20060;-75
2021/11/12 10:05:12;;;;;;;80.75;33.55;;;;;;;;;;5029961;28;20115;-74
2021/11/12 10:07:38;;;;;;;66.90;29.98;;;;;;;;;;5030701;28;20037;-74
2021/11/12 10:10:13;;;;;;;69.53;31.92;;;;;;;;;;5023699;28;20041;-75
2021/11/12 10:12:44;;;;;;;62.28;28.27;;;;;;;;;;5031490;28;20083;-75
2021/11/12 10:15:12;;;;;;;61.80;28.38;;;;;;;;;;5026427;28;20108;-75
2021/11/12 10:17:38;;;;;;;67.20;27.98;;;;;;;;;;5014082;28;20463;-75
2021/11/12 10:20:07;;;;;;;65.57;26.63;;;;;;;;;;5027266;28;20057;-74
2021/11/12 10:22:34;;;;;;;54.67;26.42;;;;;;;;;;5026256;28;20426;-75
2021/11/12 10:25:03;;;;;;;61.10;25.05;;;;;;;;;;5025750;28;20394;-75
2021/11/12 10:27:32;;;;;;;59.97;29.35;;;;;;;;;;5026706;28;20088;-76
2021/11/12 10:30:00;;;;;;;58.40;26.58;;;;;;;;;;5017003;28;20073;-75
2021/11/12 10:32:36;;;;;;;55.28;25.80;;;;;;;;;;5027843;28;20500;-75
2021/11/12 10:35:07;;;;;;;52.30;23.52;;;;;;;;;;5030997;28;20105;-75
2021/11/12 10:37:34;;;;;;;46.40;25.05;;;;;;;;;;5020436;28;20033;-75
2021/11/12 10:40:04;;;;;;;50.35;24.23;;;;;;;;;;5021769;28;20395;-75
2021/11/12 10:42:31;;;;;;;44.33;23.38;;;;;;;;;;5023925;28;20095;-75
2021/11/12 10:45:00;;;;;;;46.83;24.10;;;;;;;;;;5020905;28;20078;-75
2021/11/12 10:47:27;;;;;;;47.58;24.17;;;;;;;;;;5025370;28;20027;-75
2021/11/12 10:50:02;;;;;;;49.58;24.15;;;;;;;;;;5028806;28;20029;-74
2021/11/12 10:52:30;;;;;;;43.67;21.85;;;;;;;;;;5025490;28;20483;-74
2021/11/12 10:55:04;;;;;;;53.25;24.83;;;;;;;;;;5028167;28;20488;-74
2021/11/12 10:57:33;;;;;;;44.15;21.73;;;;;;;;;;5024185;28;20032;-74
2021/11/12 11:00:07;;;;;;;48.03;22.88;;;;;;;;;;5026131;28;20385;-74
2021/11/12 11:02:39;;;;;;;57.03;26.38;;;;;;;;;;5022432;28;20049;-74
2021/11/12 11:05:08;;;;;;;48.97;24.17;;;;;;;;;;5026926;28;20425;-74
2021/11/12 11:07:35;;;;;;;50.15;23.30;;;;;;;;;;5026682;28;20457;-74
2021/11/12 11:10:04;;;;;;;53.08;23.88;;;;;;;;;;5025602;28;20482;-74
2021/11/12 11:12:32;;;;;;;51.00;25.48;;;;;;;;;;5020451;28;20044;-75
2021/11/12 11:15:17;;;;;;;48.25;23.42;;;;;;;;;;5027016;28;20025;-74
2021/11/12 11:17:46;;;;;;;48.25;23.60;;;;;;;;;;5028757;28;20030;-75
2021/11/12 11:20:16;;;;;;;51.40;24.13;;;;;;;;;;5029857;28;20018;-75
2021/11/12 11:22:46;;;;;;;52.15;24.85;;;;;;;;;;5029290;28;20485;-75
2021/11/12 11:25:13;;;;;;;43.95;22.35;;;;;;;;;;5018569;28;20038;-74
2021/11/12 11:27:39;;;;;;;47.05;22.95;;;;;;;;;;5028356;28;20030;-74
2021/11/12 11:30:05;;;;;;;49.85;23.90;;;;;;;;;;5027528;28;20032;-74
2021/11/12 11:32:32;;;;;;;47.30;22.58;;;;;;;;;;5041264;28;20030;-74
2021/11/12 11:34:59;;;;;;;50.60;23.80;;;;;;;;;;5026009;28;20013;-74
2021/11/12 11:37:25;;;;;;;43.63;22.58;;;;;;;;;;5028824;28;20062;-74
2021/11/12 11:39:53;;;;;;;43.25;23.67;;;;;;;;;;5023320;28;20010;-74
2021/11/12 11:42:19;;;;;;;42.67;21.90;;;;;;;;;;5025666;28;20041;-75
2021/11/12 11:44:45;;;;;;;49.10;23.95;;;;;;;;;;5027899;28;20029;-74
2021/11/12 11:47:11;;;;;;;46.13;20.35;;;;;;;;;;5023752;28;20040;-74
2021/11/12 11:49:38;;;;;;;41.95;21.42;;;;;;;;;;5024773;28;20283;-75
2021/11/12 11:52:09;;;;;;;40.78;20.80;;;;;;;;;;5027885;28;20409;-74
2021/11/12 11:54:36;;;;;;;38.40;19.67;;;;;;;;;;5025533;28;20116;-74
2021/11/12 11:57:11;;;;;;;42.67;20.67;;;;;;;;;;5022192;28;20363;-74
2021/11/12 11:59:37;;;;;;;38.60;20.30;;;;;;;;;;5026567;28;20064;-74
2021/11/12 12:02:05;;;;;;;39.33;19.88;;;;;;;;;;5024397;28;20029;-75
2021/11/12 12:04:32;;;;;;;40.08;20.08;;;;;;;;;;5023659;28;20030;-74
2021/11/12 12:07:05;;;;;;;37.75;18.50;;;;;;;;;;5022827;28;20383;-74
2021/11/12 12:09:40;;;;;;;33.63;18.52;;;;;;;;;;5027536;28;20026;-74
2021/11/12 12:12:06;;;;;;;38.28;19.55;;;;;;;;;;5037268;28;20026;-74
2021/11/12 12:14:34;;;;;;;38.47;19.75;;;;;;;;;;5029173;28;20017;-74
2021/11/12 12:17:02;;;;;;;36.80;18.77;;;;;;;;;;5027205;28;20028;-74
2021/11/12 12:19:48;;;;;;;41.53;19.33;;;;;;;;;;5023973;28;20396;-74
2021/11/12 12:30:52;;;;;;;46.42;20.90;;;;;;;;;;5028434;28;20068;-74
2021/11/12 12:32:23;;;;;;;40.78;21.48;;;;;;;;;;5030538;28;20386;-74
2021/11/12 13:24:33;;;;;;;30.98;16.92;;;;;;;;;;5022279;28;20029;-73
2021/11/12 13:27:03;;;;;;;35.70;17.40;;;;;;;;;;5032187;28;20482;-73
2021/11/12 13:29:30;;;;;;;28.98;16.95;;;;;;;;;;5032040;28;20397;-74
2021/11/12 13:32:03;;;;;;;30.85;17.77;;;;;;;;;;5023228;28;20036;-73
2021/11/12 13:34:30;;;;;;;33.20;18.40;;;;;;;;;;5018660;28;20034;-73
2021/11/12 13:36:56;;;;;;;31.58;15.98;;;;;;;;;;5028811;28;20036;-73
2021/11/12 13:39:23;;;;;;;38.33;18.30;;;;;;;;;;5024487;28;20025;-73
2021/11/12 13:41:51;;;;;;;30.40;16.52;;;;;;;;;;5024035;28;20026;-72
2021/11/12 13:44:18;;;;;;;30.42;17.42;;;;;;;;;;5021373;28;20390;-73
2021/11/12 13:46:48;;;;;;;33.47;17.75;;;;;;;;;;5019434;28;20441;-73
2021/11/12 13:49:42;;;;;;;29.52;16.33;;;;;;;;;;5024427;28;20492;-73
2021/11/12 13:52:11;;;;;;;31.88;17.13;;;;;;;;;;5028719;28;20119;-73
2021/11/12 13:54:45;;;;;;;30.42;16.70;;;;;;;;;;5014077;28;20022;-73
2021/11/12 13:57:15;;;;;;;32.75;17.27;;;;;;;;;;5029912;28;20025;-72
2021/11/12 13:59:54;;;;;;;31.45;15.25;;;;;;;;;;5016250;28;20026;-73
2021/11/12 14:02:20;;;;;;;30.70;16.25;;;;;;;;;;5044421;23;20118;-70
2021/11/12 14:04:46;;;;;;;33.08;16.02;;;;;;;;;;5010103;28;20034;-70
2021/11/12 14:07:16;;;;;;;31.13;17.23;;;;;;;;;;5010453;28;20026;-68
2021/11/12 14:09:42;;;;;;;30.45;14.90;;;;;;;;;;5012050;28;20136;-70
2021/11/12 14:12:10;;;;;;;35.80;16.83;;;;;;;;;;5008981;28;20496;-70
2021/11/12 14:14:38;;;;;;;29.52;16.45;;;;;;;;;;4998138;28;20401;-68
2021/11/12 14:17:29;;;;;;;32.05;17.27;;;;;;;;;;4989856;28;20029;-70
2021/11/12 14:20:41;;;;;;;31.33;16.17;;;;;;;;;;4990959;28;20022;-69
2021/11/12 14:23:12;;;;;;;32.25;15.60;;;;;;;;;;4991279;28;20121;-69
2021/11/12 14:26:11;;;;;;;36.08;17.38;;;;;;;;;;4990127;28;20029;-69
2021/11/12 14:28:52;;;;;;;30.15;15.70;;;;;;;;;;4989433;28;20068;-69
2021/11/12 14:31:49;;;;;;;31.00;17.02;;;;;;;;;;5004521;28;20045;-69
2021/11/12 14:39:59;;;;;;;31.40;15.88;;;;;;;;;;4990822;28;20419;-69
2021/11/12 14:42:45;;;;;;;36.00;17.65;;;;;;;;;;4990964;28;20479;-68
2021/11/12 14:54:01;;;;;;;31.65;15.05;;;;;;;;;;4989115;28;20037;-69
2021/11/12 14:56:09;;;;;;;28.38;14.93;;;;;;;;;;4988976;28;20030;-67
2021/11/12 14:58:36;;;;;;;27.38;15.27;;;;;;;;;;4988091;28;20014;-69
2021/11/12 15:01:13;;;;;;;29.67;14.80;;;;;;;;;;4988333;28;20033;-70
2021/11/12 15:03:42;;;;;;;27.10;14.63;;;;;;;;;;4986584;28;20030;-69
2021/11/12 15:06:09;;;;;;;28.08;14.60;;;;;;;;;;4988978;28;20490;-69
2021/11/12 15:08:42;;;;;;;26.00;13.80;;;;;;;;;;4983252;28;20030;-69
2021/11/12 15:11:09;;;;;;;26.73;13.82;;;;;;;;;;4990238;28;20317;-69
2021/11/12 15:13:37;;;;;;;33.22;14.20;;;;;;;;;;4988121;28;20572;-69
2021/11/12 15:16:07;;;;;;;32.55;14.82;;;;;;;;;;4988993;28;20011;-68
2021/11/12 15:18:33;;;;;;;;;;;;;;;;;;4986126;28;20476;-69
2021/11/12 15:21:01;;;;;;;24.42;13.15;;;;;;;;;;4988009;28;19940;-68
2021/11/12 15:23:37;;;;;;;30.48;14.02;;;;;;;;;;4989817;28;20116;-69
2021/11/12 15:26:16;;;;;;;30.17;14.38;;;;;;;;;;4989238;28;20058;-69
2021/11/12 15:31:34;;;;;;;30.90;14.10;;;;;;;;;;4989674;28;20050;-69
2021/11/12 15:34:06;;;;;;;28.40;14.75;;;;;;;;;;4989491;28;20015;-69
2021/11/12 15:36:33;;;;;;;26.45;14.02;;;;;;;;;;4987533;28;20022;-69
2021/11/12 15:39:27;;;;;;;28.25;13.82;;;;;;;;;;4986242;28;20030;-69
2021/11/12 15:44:31;;;;;;;30.23;14.95;;;;;;;;;;4990184;28;20034;-69
2021/11/12 15:47:05;;;;;;;32.88;15.30;;;;;;;;;;4988901;28;20030;-69
2021/11/12 15:49:31;;;;;;;33.55;15.18;;;;;;;;;;4987990;28;20087;-69
2021/11/12 15:52:05;;;;;;;28.77;14.85;;;;;;;;;;4989448;28;20475;-69
2021/11/12 16:02:32;;;;;;;24.38;13.32;;;;;;;;;;4987545;28;20038;-68
2021/11/12 16:12:59;;;;;;;29.35;13.13;;;;;;;;;;4990631;28;20508;-69
2021/11/12 16:18:09;;;;;;;29.95;11.68;;;;;;;;;;4990663;28;20392;-68
2021/11/12 16:23:51;;;;;;;22.73;11.75;;;;;;;;;;4966498;28;20096;-69
2021/11/12 16:26:19;;;;;;;25.75;11.93;;;;;;;;;;4988184;28;20022;-67
2021/11/12 16:29:10;;;;;;;20.70;9.40;;;;;;;;;;4989673;28;20019;-68
2021/11/12 16:31:38;;;;;;;19.02;9.13;;;;;;;;;;4985414;28;20077;-69
2021/11/12 16:34:11;;;;;;;22.48;9.82;;;;;;;;;;4986555;28;20093;-69
2021/11/12 16:36:43;;;;;;;19.02;10.00;;;;;;;;;;4985827;28;20018;-68
2021/11/12 16:39:10;;;;;;;19.13;9.75;;;;;;;;;;4987546;28;20507;-69
2021/11/12 16:41:39;;;;;;;17.83;8.90;;;;;;;;;;4990792;28;20030;-68
2021/11/12 16:44:16;;;;;;;18.90;9.95;;;;;;;;;;4986468;28;20026;-69
2021/11/12 16:49:20;;;;;;;17.63;8.90;;;;;;;;;;4989968;28;20411;-68
2021/11/12 16:52:15;;;;;;;17.77;9.18;;;;;;;;;;4991809;28;20026;-69
2021/11/12 16:54:46;;;;;;;21.65;9.15;;;;;;;;;;4991299;28;20468;-69
2021/11/12 17:02:30;;;;;;;17.83;10.10;;;;;;;;;;4990742;28;20030;-68
2021/11/12 17:10:10;;;;;;;18.00;10.15;;;;;;;;;;4990882;28;20034;-69
2021/11/12 17:13:00;;;;;;;18.67;9.85;;;;;;;;;;4992712;28;20030;-69
2021/11/12 17:15:36;;;;;;;21.30;10.45;;;;;;;;;;4984398;28;20492;-69
2021/11/12 17:47:41;;;;;;;20.30;10.35;;;;;;;;;;4991496;28;20122;-69
2021/11/12 18:03:19;;;;;;;18.58;9.30;;;;;;;;;;4990203;28;20060;-69
2021/11/12 18:05:48;;;;;;;15.07;8.25;;;;;;;;;;4988455;28;20063;-69
2021/11/12 18:16:42;;;;;;;19.52;10.02;;;;;;;;;;4990118;28;20031;-69
2021/11/12 18:25:44;;;;;;;20.90;9.77;;;;;;;;;;4988009;28;20562;-69
2021/11/12 21:46:16;;;;;;;29.83;15.60;;;;;;;;;;4988857;28;20038;-69
2021/11/12 21:48:43;;;;;;;30.90;15.50;;;;;;;;;;4986685;28;20064;-69
2021/11/12 21:51:11;;;;;;;30.10;13.93;;;;;;;;;;4991587;28;20018;-69
2021/11/12 21:53:37;;;;;;;36.33;16.17;;;;;;;;;;4988454;28;20022;-68
2021/11/12 21:56:04;;;;;;;37.20;15.65;;;;;;;;;;4983748;28;20073;-68
2021/11/12 21:58:31;;;;;;;30.85;16.70;;;;;;;;;;4990008;28;20030;-69
2021/11/12 22:00:58;;;;;;;32.20;15.98;;;;;;;;;;4989833;28;20113;-69
2021/11/12 22:03:27;;;;;;;33.30;17.77;;;;;;;;;;4991491;28;20090;-68
2021/11/12 22:05:53;;;;;;;32.75;15.93;;;;;;;;;;5007558;28;20026;-69
2021/11/12 22:08:19;;;;;;;36.08;16.20;;;;;;;;;;5008773;28;20330;-68
2021/11/12 22:10:45;;;;;;;39.65;18.45;;;;;;;;;;4997561;28;20379;-69
2021/11/12 22:13:11;;;;;;;30.58;16.17;;;;;;;;;;4992271;28;20026;-68
2021/11/12 22:15:40;;;;;;;34.58;16.75;;;;;;;;;;4987951;28;20049;-69
2021/11/12 22:18:06;;;;;;;39.58;16.98;;;;;;;;;;4991711;28;20467;-69
2021/11/12 22:20:33;;;;;;;39.38;17.25;;;;;;;;;;4988838;28;20052;-69
2021/11/12 22:23:00;;;;;;;37.28;18.05;;;;;;;;;;4988735;28;20031;-69
2021/11/12 22:25:26;;;;;;;36.53;17.35;;;;;;;;;;4987739;28;20038;-69
2021/11/12 22:27:52;;;;;;;47.42;19.35;;;;;;;;;;4987537;28;20031;-69
2021/11/12 22:30:18;;;;;;;47.35;19.55;;;;;;;;;;4991480;28;20050;-69
2021/11/12 22:32:44;;;;;;;40.78;17.80;;;;;;;;;;4991796;28;20077;-69
2021/11/12 22:35:10;;;;;;;36.72;17.38;;;;;;;;;;4988893;28;20456;-69
2021/11/12 22:37:37;;;;;;;44.17;18.02;;;;;;;;;;4985758;28;20031;-69
2021/11/12 22:40:04;;;;;;;38.33;17.73;;;;;;;;;;4988436;28;20046;-69
2021/11/12 22:42:30;;;;;;;38.10;18.42;;;;;;;;;;4989689;28;20447;-69
2021/11/12 22:44:56;;;;;;;44.28;18.98;;;;;;;;;;4990195;28;20022;-69
2021/11/12 22:47:22;;;;;;;39.20;18.63;;;;;;;;;;4989212;28;20060;-69
2021/11/12 22:49:48;;;;;;;41.40;20.00;;;;;;;;;;4990527;28;20026;-71
2021/11/12 22:52:14;;;;;;;40.83;19.83;;;;;;;;;;4989776;28;20034;-69
2021/11/12 22:54:47;;;;;;;42.63;19.20;;;;;;;;;;4989549;28;20033;-69
2021/11/12 22:57:13;;;;;;;45.20;21.40;;;;;;;;;;4990995;28;20678;-68
2021/11/12 22:59:39;;;;;;;36.60;18.25;;;;;;;;;;4987810;28;20469;-69
2021/11/12 23:02:05;;;;;;;37.90;18.38;;;;;;;;;;4988281;28;20121;-69
2021/11/12 23:04:31;;;;;;;41.70;19.85;;;;;;;;;;4990263;28;20034;-69
2021/11/12 23:06:57;;;;;;;43.63;19.75;;;;;;;;;;4983863;28;20018;-69
2021/11/12 23:09:23;;;;;;;41.38;20.73;;;;;;;;;;4990999;28;20511;-69
2021/11/12 23:11:49;;;;;;;45.05;20.85;;;;;;;;;;4990696;28;20411;-69
2021/11/12 23:14:15;;;;;;;46.28;20.30;;;;;;;;;;4988982;28;20026;-69
2021/11/12 23:16:41;;;;;;;47.42;21.05;;;;;;;;;;4986637;28;20546;-69
2021/11/12 23:19:07;;;;;;;45.90;21.98;;;;;;;;;;4986015;28;20034;-69
2021/11/12 23:21:33;;;;;;;45.42;21.75;;;;;;;;;;4991735;28;20030;-69
2021/11/12 23:23:59;;;;;;;42.35;19.90;;;;;;;;;;4988736;28;20030;-69
2021/11/12 23:26:26;;;;;;;45.90;21.95;;;;;;;;;;4987511;28;20066;-69
2021/11/12 23:28:52;;;;;;;43.95;21.30;;;;;;;;;;5001327;28;20030;-69
2021/11/12 23:31:19;;;;;;;51.63;23.83;;;;;;;;;;4988226;28;20504;-69
2021/11/12 23:33:45;;;;;;;43.95;21.48;;;;;;;;;;4991673;28;20427;-69
2021/11/12 23:36:11;;;;;;;44.20;20.77;;;;;;;;;;4987279;28;20548;-69
2021/11/12 23:38:37;;;;;;;54.67;21.13;;;;;;;;;;4990674;28;20069;-69
2021/11/12 23:41:03;;;;;;;49.60;23.42;;;;;;;;;;4990383;28;20015;-69
2021/11/12 23:43:29;;;;;;;48.90;21.42;;;;;;;;;;4989507;28;20034;-69
2021/11/12 23:45:55;;;;;;;42.38;20.88;;;;;;;;;;4989159;28;20488;-69
2021/11/12 23:48:21;;;;;;;41.72;20.05;;;;;;;;;;4993448;28;20022;-69
2021/11/12 23:50:48;;;;;;;45.70;21.85;;;;;;;;;;4997586;28;20099;-69
2021/11/12 23:53:14;;;;;;;47.80;21.83;;;;;;;;;;4987415;28;20077;-69
2021/11/12 23:55:40;;;;;;;50.80;22.40;;;;;;;;;;4986983;28;20435;-69